createdAt,value
2022-10-05T00:01:34.538Z,14.93
2022-10-05T00:04:28.965Z,14.64
2022-10-05T00:07:18.523Z,14.72
2022-10-05T00:09:57.906Z,14.63
2022-10-05T00:12:29.676Z,14.80
2022-10-05T00:15:01.116Z,14.68
2022-10-05T00:17:30.733Z,14.42
2022-10-05T00:19:58.009Z,14.48
2022-10-05T00:22:33.269Z,14.63
2022-10-05T00:25:11.143Z,14.74
2022-10-05T00:27:39.749Z,14.70
2022-10-05T00:30:17.699Z,14.62
2022-10-05T00:32:46.355Z,14.51
2022-10-05T00:35:16.623Z,14.55
2022-10-05T00:37:46.628Z,14.50
2022-10-05T00:41:08.882Z,14.63
2022-10-05T00:44:59.956Z,14.43
2022-10-05T00:48:27.172Z,14.51
2022-10-05T00:51:24.116Z,14.60
2022-10-05T00:54:36.676Z,14.55
2022-10-05T00:57:44.480Z,14.45
2022-10-05T01:00:20.204Z,14.44
2022-10-05T01:03:25.905Z,14.42
2022-10-05T01:06:34.104Z,14.20
2022-10-05T01:09:33.239Z,14.19
2022-10-05T01:12:45.582Z,14.10
2022-10-05T01:15:39.700Z,14.25
2022-10-05T01:18:59.035Z,14.20
2022-10-05T01:21:36.853Z,14.10
2022-10-05T01:24:49.863Z,14.04
2022-10-05T01:28:04.746Z,14.07
2022-10-05T01:30:56.867Z,14.08
2022-10-05T01:33:50.297Z,14.10
2022-10-05T01:36:51.484Z,13.91
2022-10-05T01:39:49.106Z,13.98
2022-10-05T01:42:56.006Z,13.84
2022-10-05T01:46:15.412Z,13.96
2022-10-05T01:49:50.184Z,13.73
2022-10-05T01:52:52.210Z,13.86
2022-10-05T01:56:22.560Z,13.76
2022-10-05T01:59:46.920Z,13.77
2022-10-05T02:02:21.018Z,13.79
2022-10-05T02:05:08.237Z,13.67
2022-10-05T02:07:51.117Z,13.64
2022-10-05T02:10:36.280Z,13.93
2022-10-05T02:13:38.894Z,13.71
2022-10-05T02:16:45.063Z,13.69
2022-10-05T02:19:44.641Z,13.73
2022-10-05T02:22:38.082Z,13.75
2022-10-05T02:25:33.132Z,13.64
2022-10-05T02:29:00.344Z,13.58
2022-10-05T02:31:57.560Z,13.56
2022-10-05T02:34:38.412Z,13.54
2022-10-05T02:37:57.124Z,13.52
2022-10-05T02:41:20.055Z,13.51
2022-10-05T02:44:41.688Z,13.47
2022-10-05T02:47:54.996Z,13.36
2022-10-05T02:50:39.084Z,13.33
2022-10-05T02:54:04.631Z,13.46
2022-10-05T02:57:16.301Z,13.45
2022-10-05T03:00:15.024Z,13.47
2022-10-05T03:03:25.442Z,13.51
2022-10-05T03:06:04.571Z,13.38
2022-10-05T03:08:55.458Z,13.46
2022-10-05T03:12:22.994Z,13.29
2022-10-05T03:15:45.028Z,13.39
2022-10-05T03:19:31.371Z,13.31
2022-10-05T03:23:02.151Z,13.31
2022-10-05T03:25:41.288Z,13.17
2022-10-05T03:28:54.908Z,13.15
2022-10-05T03:31:59.678Z,13.07
2022-10-05T03:35:00.311Z,13.14
2022-10-05T03:37:39.508Z,13.24
2022-10-05T03:40:39.800Z,12.99
2022-10-05T03:44:16.713Z,13.09
2022-10-05T03:47:38.004Z,12.82
2022-10-05T03:51:12.944Z,12.93
2022-10-05T03:53:56.624Z,12.88
2022-10-05T03:56:53.424Z,12.76
2022-10-05T03:59:40.471Z,12.80
2022-10-05T04:02:31.098Z,12.69
2022-10-05T04:05:18.089Z,12.61
2022-10-05T04:08:07.661Z,12.57
2022-10-05T04:10:55.415Z,12.53
2022-10-05T04:13:51.973Z,12.58
2022-10-05T04:16:34.594Z,12.58
2022-10-05T04:19:19.591Z,12.69
2022-10-05T04:22:17.134Z,12.70
2022-10-05T04:25:24.968Z,12.71
2022-10-05T04:28:31.967Z,12.72
2022-10-05T04:31:04.111Z,12.89
2022-10-05T04:33:33.341Z,12.86
2022-10-05T04:36:30.046Z,12.73
2022-10-05T04:39:48.001Z,12.70
2022-10-05T04:42:45.737Z,12.86
2022-10-05T04:46:08.979Z,12.74
2022-10-05T04:49:29.939Z,12.72
2022-10-05T04:52:37.949Z,12.90
2022-10-05T04:55:45.936Z,12.77
2022-10-05T04:59:05.196Z,12.75
2022-10-05T05:02:53.315Z,12.76
2022-10-05T05:06:28.192Z,12.67
2022-10-05T05:09:59.563Z,12.58
2022-10-05T05:13:50.523Z,12.66
2022-10-05T05:16:43.650Z,12.75
2022-10-05T05:20:16.805Z,12.66
2022-10-05T05:23:23.816Z,12.69
2022-10-05T05:26:14.626Z,12.76
2022-10-05T05:29:44.849Z,12.52
2022-10-05T05:33:12.742Z,12.55
2022-10-05T05:35:52.798Z,12.70
2022-10-05T05:38:44.726Z,12.71
2022-10-05T05:41:44.231Z,12.77
2022-10-05T05:44:38.603Z,12.78
2022-10-05T05:47:30.757Z,12.70
2022-10-05T05:50:51.494Z,12.69
2022-10-05T05:53:57.696Z,12.67
2022-10-05T05:56:40.389Z,12.71
2022-10-05T05:59:32.519Z,12.81
2022-10-05T06:02:27.310Z,12.79
2022-10-05T06:05:32.068Z,12.61
2022-10-05T06:08:20.445Z,12.56
2022-10-05T06:11:00.515Z,12.59
2022-10-05T06:13:40.463Z,12.52
2022-10-05T06:16:51.857Z,12.55
2022-10-05T06:19:24.544Z,12.60
2022-10-05T06:22:32.673Z,12.66
2022-10-05T06:25:11.768Z,12.72
2022-10-05T06:28:00.234Z,12.76
2022-10-05T06:31:02.981Z,12.77
2022-10-05T06:34:01.695Z,12.74
2022-10-05T06:36:50.944Z,12.60
2022-10-05T06:39:54.591Z,12.70
2022-10-05T06:42:59.864Z,12.71
2022-10-05T06:46:16.151Z,12.60
2022-10-05T06:49:23.358Z,12.76
2022-10-05T06:52:14.810Z,12.80
2022-10-05T06:55:13.909Z,12.85
2022-10-05T06:58:30.889Z,12.94
2022-10-05T07:01:38.855Z,12.97
2022-10-05T07:04:42.457Z,12.87
2022-10-05T07:07:32.506Z,12.96
2022-10-05T07:10:54.893Z,12.84
2022-10-05T07:14:14.061Z,13.00
2022-10-05T07:17:29.247Z,13.08
2022-10-05T07:20:55.318Z,13.16
2022-10-05T07:23:58.237Z,13.19
2022-10-05T07:27:13.559Z,13.15
2022-10-05T07:30:12.878Z,13.17
2022-10-05T07:33:20.841Z,13.23
2022-10-05T07:37:08.581Z,13.18
2022-10-05T07:40:30.735Z,13.39
2022-10-05T07:44:01.104Z,13.48
2022-10-05T07:47:26.119Z,13.65
2022-10-05T07:50:43.840Z,13.66
2022-10-05T07:53:45.176Z,13.76
2022-10-05T07:56:49.409Z,13.84
2022-10-05T08:00:19.033Z,13.88
2022-10-05T08:03:34.362Z,13.90
2022-10-05T08:06:03.789Z,13.94
2022-10-05T08:09:26.144Z,14.00
2022-10-05T08:12:31.129Z,14.04
2022-10-05T08:15:45.926Z,14.01
2022-10-05T08:18:54.313Z,14.21
2022-10-05T08:22:04.229Z,14.22
2022-10-05T08:25:01.912Z,14.34
2022-10-05T08:28:23.067Z,14.49
2022-10-05T08:31:33.649Z,14.60
2022-10-05T08:34:39.536Z,14.74
2022-10-05T08:37:35.294Z,14.95
2022-10-05T08:41:27.385Z,15.00
2022-10-05T08:44:41.384Z,15.25
2022-10-05T08:48:04.680Z,15.40
2022-10-05T08:50:50.035Z,15.62
2022-10-05T08:53:59.281Z,15.54
2022-10-05T08:57:31.428Z,15.83
2022-10-05T09:00:24.846Z,16.11
2022-10-05T09:03:50.480Z,16.10
2022-10-05T09:07:13.324Z,16.20
2022-10-05T09:10:13.627Z,16.41
2022-10-05T09:13:48.203Z,16.54
2022-10-05T09:17:19.654Z,16.75
2022-10-05T09:20:30.845Z,16.92
2022-10-05T09:23:26.304Z,17.23
2022-10-05T09:26:46.608Z,17.38
2022-10-05T09:30:10.622Z,17.66
2022-10-05T09:32:58.199Z,17.89
2022-10-05T09:36:18.772Z,18.17
2022-10-05T09:39:42.323Z,18.46
2022-10-05T09:42:40.027Z,18.73
2022-10-05T09:46:05.264Z,18.86
2022-10-05T09:49:31.393Z,19.29
2022-10-05T09:53:27.540Z,19.63
2022-10-05T09:56:52.389Z,19.92
2022-10-05T10:00:34.368Z,20.13
2022-10-05T10:04:17.956Z,20.35
2022-10-05T10:07:20.554Z,20.68
2022-10-05T10:10:41.877Z,20.86
2022-10-05T10:14:01.347Z,21.33
2022-10-05T10:17:27.752Z,21.47
2022-10-05T10:21:07.725Z,21.72
2022-10-05T10:24:24.052Z,22.22
2022-10-05T10:27:42.030Z,22.43
2022-10-05T10:30:56.406Z,22.83
2022-10-05T10:34:03.733Z,23.17
2022-10-05T10:37:00.941Z,23.42
2022-10-05T10:40:26.909Z,23.54
2022-10-05T10:43:43.716Z,23.86
2022-10-05T10:47:13.869Z,24.02
2022-10-05T10:50:28.278Z,24.23
2022-10-05T10:53:57.524Z,24.09
2022-10-05T10:57:10.984Z,24.68
2022-10-05T11:00:20.866Z,24.80
2022-10-05T11:03:43.536Z,25.18
2022-10-05T11:06:50.072Z,25.37
2022-10-05T11:09:27.919Z,25.74
2022-10-05T11:12:58.548Z,25.73
2022-10-05T11:17:10.884Z,26.25
2022-10-05T11:20:19.736Z,26.40
2022-10-05T11:23:56.520Z,26.77
2022-10-05T11:27:04.282Z,26.61
2022-10-05T11:30:35.273Z,27.12
2022-10-05T11:34:04.052Z,27.13
2022-10-05T11:37:15.883Z,27.40
2022-10-05T11:40:43.203Z,27.70
2022-10-05T11:44:07.230Z,27.86
2022-10-05T11:47:19.736Z,27.85
2022-10-05T11:50:30.400Z,28.04
2022-10-05T11:53:33.623Z,28.30
2022-10-05T11:56:41.715Z,28.45
2022-10-05T11:59:51.597Z,28.70
2022-10-05T12:03:06.949Z,29.06
2022-10-05T12:06:38.760Z,28.91
2022-10-05T12:09:37.352Z,29.04
2022-10-05T12:12:27.680Z,27.97
2022-10-05T12:15:42.547Z,27.20
2022-10-05T12:18:42.149Z,27.01
2022-10-05T12:21:49.982Z,27.45
2022-10-05T12:25:46.975Z,26.91
2022-10-05T12:28:23.442Z,27.43
2022-10-05T12:31:45.957Z,27.59
2022-10-05T12:35:04.488Z,28.08
2022-10-05T12:38:12.462Z,28.40
2022-10-05T12:41:20.273Z,27.82
2022-10-05T12:44:04.684Z,27.91
2022-10-05T12:46:50.521Z,27.93
2022-10-05T12:50:35.168Z,27.97
2022-10-05T12:54:07.184Z,28.12
2022-10-05T12:56:44.731Z,27.64
2022-10-05T12:59:34.464Z,27.32
2022-10-05T13:02:44.440Z,27.47
2022-10-05T13:05:11.456Z,27.32
2022-10-05T13:08:31.020Z,27.71
2022-10-05T13:11:16.926Z,27.52
2022-10-05T13:14:45.350Z,27.74
2022-10-05T13:18:03.771Z,27.41
2022-10-05T13:21:15.163Z,27.72
2022-10-05T13:24:22.119Z,27.63
2022-10-05T13:27:05.554Z,27.79
2022-10-05T13:30:12.259Z,27.64
2022-10-05T13:33:05.705Z,27.42
2022-10-05T13:35:58.976Z,27.51
2022-10-05T13:38:52.996Z,27.53
2022-10-05T13:42:26.843Z,27.76
2022-10-05T13:45:21.314Z,27.52
2022-10-05T13:48:57.769Z,27.53
2022-10-05T13:51:56.337Z,27.58
2022-10-05T13:55:16.992Z,27.51
2022-10-05T13:58:25.914Z,27.45
2022-10-05T14:01:13.562Z,28.83
2022-10-05T14:03:42.079Z,29.02
2022-10-05T14:06:30.006Z,29.11
2022-10-05T14:09:00.494Z,29.13
2022-10-05T14:11:35.127Z,29.07
2022-10-05T14:14:27.303Z,29.21
2022-10-05T14:17:00.905Z,29.49
2022-10-05T14:19:46.252Z,29.23
2022-10-05T14:22:25.009Z,28.64
2022-10-05T14:25:19.919Z,28.93
2022-10-05T14:28:12.176Z,29.03
2022-10-05T14:30:40.493Z,28.62
2022-10-05T14:33:17.000Z,28.88
2022-10-05T14:35:51.303Z,29.52
2022-10-05T14:39:02.010Z,29.59
2022-10-05T14:41:34.413Z,29.68
2022-10-05T14:44:09.142Z,29.32
2022-10-05T14:46:38.564Z,29.38
2022-10-05T14:49:26.091Z,29.68
2022-10-05T14:51:56.238Z,29.78
2022-10-05T14:54:56.964Z,29.49
2022-10-05T14:58:03.628Z,29.37
2022-10-05T15:01:06.896Z,29.70
2022-10-05T15:04:22.649Z,29.70
2022-10-05T15:07:31.024Z,29.47
2022-10-05T15:10:29.417Z,29.65
2022-10-05T15:13:15.656Z,29.63
2022-10-05T15:16:14.409Z,29.76
2022-10-05T15:19:00.043Z,29.59
2022-10-05T15:22:15.116Z,29.66
2022-10-05T15:24:50.588Z,29.79
2022-10-05T15:28:06.340Z,29.75
2022-10-05T15:30:52.270Z,29.74
2022-10-05T15:33:51.064Z,29.74
2022-10-05T15:36:43.304Z,29.85
2022-10-05T15:39:37.094Z,29.52
2022-10-05T15:42:21.240Z,29.39
2022-10-05T15:45:35.232Z,29.33
2022-10-05T15:48:39.333Z,29.26
2022-10-05T15:51:50.877Z,29.16
2022-10-05T15:54:54.490Z,29.02
2022-10-05T15:57:48.975Z,28.90
2022-10-05T16:00:23.217Z,29.03
2022-10-05T16:03:59.616Z,28.94
2022-10-05T16:07:07.415Z,28.63
2022-10-05T16:10:14.353Z,28.39
2022-10-05T16:13:42.607Z,28.16
2022-10-05T16:16:54.514Z,27.89
2022-10-05T16:20:21.437Z,27.63
2022-10-05T16:23:33.404Z,27.51
2022-10-05T16:26:57.277Z,27.13
2022-10-05T16:30:04.000Z,26.99
2022-10-05T16:32:58.480Z,26.85
2022-10-05T16:36:23.358Z,26.58
2022-10-05T16:39:20.669Z,26.51
2022-10-05T16:42:24.077Z,26.27
2022-10-05T16:45:47.993Z,26.28
2022-10-05T16:48:52.409Z,25.94
2022-10-05T16:52:00.332Z,25.93
2022-10-05T16:55:02.909Z,25.67
2022-10-05T16:57:43.150Z,25.65
2022-10-05T17:00:45.337Z,25.36
2022-10-05T17:03:35.870Z,25.00
2022-10-05T17:06:59.139Z,24.89
2022-10-05T17:10:13.055Z,24.68
2022-10-05T17:13:23.320Z,24.63
2022-10-05T17:16:35.912Z,24.68
2022-10-05T17:19:43.619Z,24.48
2022-10-05T17:22:52.937Z,24.28
2022-10-05T17:25:48.280Z,24.20
2022-10-05T17:28:41.140Z,23.97
2022-10-05T17:31:22.229Z,23.40
2022-10-05T17:34:16.538Z,23.56
2022-10-05T17:36:54.441Z,23.61
2022-10-05T17:39:52.273Z,23.60
2022-10-05T17:42:35.462Z,23.62
2022-10-05T17:45:31.624Z,23.35
2022-10-05T17:48:33.896Z,23.24
2022-10-05T17:51:19.876Z,23.21
2022-10-05T17:54:08.482Z,22.93
2022-10-05T17:56:47.994Z,23.13
2022-10-05T17:59:53.797Z,23.16
2022-10-05T18:02:42.808Z,22.87
2022-10-05T18:05:14.469Z,22.91
2022-10-05T18:07:48.151Z,22.76
2022-10-05T18:10:30.009Z,22.64
2022-10-05T18:13:00.225Z,22.66
2022-10-05T18:15:27.253Z,22.40
2022-10-05T18:18:32.189Z,22.36
2022-10-05T18:21:14.928Z,22.20
2022-10-05T18:23:56.869Z,22.12
2022-10-05T18:27:16.105Z,22.05
2022-10-05T18:30:08.754Z,22.09
2022-10-05T18:33:36.142Z,22.01
2022-10-05T18:36:54.875Z,21.92
2022-10-05T18:40:34.806Z,21.83
2022-10-05T18:43:37.987Z,21.92
2022-10-05T18:46:50.428Z,21.68
2022-10-05T18:50:42.928Z,21.67
2022-10-05T18:53:31.785Z,21.60
2022-10-05T18:56:45.147Z,21.30
2022-10-05T18:59:46.890Z,21.32
2022-10-05T19:02:38.434Z,21.27
2022-10-05T19:05:51.525Z,21.24
2022-10-05T19:08:50.228Z,21.14
2022-10-05T19:12:01.278Z,21.20
2022-10-05T19:15:15.644Z,20.93
2022-10-05T19:18:43.205Z,20.88
2022-10-05T19:21:51.390Z,20.76
2022-10-05T19:25:04.403Z,20.72
2022-10-05T19:28:27.002Z,20.64
2022-10-05T19:31:14.102Z,20.61
2022-10-05T19:34:28.377Z,20.48
2022-10-05T19:37:48.889Z,20.40
2022-10-05T19:41:13.324Z,20.36
2022-10-05T19:44:39.100Z,20.27
2022-10-05T19:48:14.526Z,20.18
2022-10-05T19:50:59.201Z,20.13
2022-10-05T19:53:37.814Z,20.14
2022-10-05T19:56:31.082Z,20.01
2022-10-05T19:59:17.207Z,19.97
2022-10-05T20:01:56.719Z,20.06
2022-10-05T20:04:36.672Z,19.88
2022-10-05T20:07:04.917Z,19.92
2022-10-05T20:10:22.794Z,19.82
2022-10-05T20:12:57.504Z,19.72
2022-10-05T20:15:55.327Z,19.67
2022-10-05T20:19:07.798Z,19.59
2022-10-05T20:21:49.512Z,19.54
2022-10-05T20:24:25.759Z,19.46
2022-10-05T20:27:09.533Z,19.47
2022-10-05T20:29:44.523Z,19.37
2022-10-05T20:32:18.718Z,19.45
2022-10-05T20:34:49.402Z,19.27
2022-10-05T20:37:18.967Z,19.36
2022-10-05T20:39:47.899Z,19.33
2022-10-05T20:42:15.209Z,19.15
2022-10-05T20:44:43.737Z,19.20
2022-10-05T20:47:11.821Z,19.27
2022-10-05T20:49:44.453Z,19.16
2022-10-05T20:52:15.061Z,19.25
2022-10-05T20:54:43.184Z,19.11
2022-10-05T20:57:11.038Z,19.12
2022-10-05T20:59:38.392Z,19.12
2022-10-05T21:02:06.257Z,19.00
2022-10-05T21:04:41.255Z,18.93
2022-10-05T21:07:09.334Z,18.79
2022-10-05T21:09:38.476Z,18.80
2022-10-05T21:12:05.933Z,18.79
2022-10-05T21:14:34.518Z,18.71
2022-10-05T21:17:04.483Z,18.72
2022-10-05T21:19:38.107Z,18.64
2022-10-05T21:22:10.669Z,18.59
2022-10-05T21:24:40.867Z,18.54
2022-10-05T21:27:09.628Z,18.49
2022-10-05T21:29:37.250Z,18.33
2022-10-05T21:32:08.645Z,18.32
2022-10-05T21:34:36.053Z,18.32
2022-10-05T21:37:03.413Z,18.15
2022-10-05T21:39:30.679Z,18.04
2022-10-05T21:41:57.953Z,18.22
2022-10-05T21:44:25.343Z,18.17
2022-10-05T21:46:52.908Z,18.19
2022-10-05T21:49:20.481Z,18.02
2022-10-05T21:51:48.514Z,18.11
2022-10-05T21:54:21.220Z,18.02
2022-10-05T21:56:57.967Z,18.02
2022-10-05T21:59:33.611Z,17.97
2022-10-05T22:02:00.925Z,17.83
2022-10-05T22:04:29.142Z,17.95
2022-10-05T22:06:56.792Z,17.88
2022-10-05T22:09:24.899Z,17.78
2022-10-05T22:11:52.167Z,17.81
2022-10-05T22:14:19.447Z,17.80
2022-10-05T22:16:47.249Z,17.78
2022-10-05T22:19:19.967Z,17.80
2022-10-05T22:21:47.327Z,17.77
2022-10-05T22:24:15.512Z,17.68
2022-10-05T22:26:46.911Z,17.56
2022-10-05T22:29:17.380Z,17.61
2022-10-05T22:31:48.563Z,17.54
2022-10-05T22:34:18.033Z,17.60
2022-10-05T22:36:45.874Z,17.52
2022-10-05T22:39:14.252Z,17.58
2022-10-05T22:41:41.818Z,17.54
2022-10-05T22:44:10.780Z,17.43
2022-10-05T22:46:38.395Z,17.52
2022-10-05T22:49:05.692Z,17.33
2022-10-05T22:51:32.985Z,17.32
2022-10-05T22:54:00.272Z,17.41
2022-10-05T22:56:27.608Z,17.29
2022-10-05T22:58:54.865Z,17.38
2022-10-05T23:01:23.323Z,17.23
2022-10-05T23:03:50.596Z,17.20
2022-10-05T23:06:20.853Z,17.19
2022-10-05T23:08:48.270Z,17.05
2022-10-05T23:11:27.096Z,17.10
2022-10-05T23:13:56.991Z,17.05
2022-10-05T23:16:28.499Z,17.04
2022-10-05T23:18:56.912Z,17.07
2022-10-05T23:21:29.072Z,16.94
2022-10-05T23:23:56.394Z,17.01
2022-10-05T23:26:33.107Z,16.88
2022-10-05T23:29:00.398Z,16.98
2022-10-05T23:31:31.884Z,16.91
2022-10-05T23:33:59.663Z,16.87
2022-10-05T23:36:32.995Z,16.78
2022-10-05T23:39:00.473Z,16.78
2022-10-05T23:41:27.778Z,16.79
2022-10-05T23:43:55.448Z,16.81
2022-10-05T23:46:23.366Z,16.81
2022-10-05T23:48:50.703Z,16.85
2022-10-05T23:51:18.026Z,16.71
2022-10-05T23:53:45.567Z,16.76
2022-10-05T23:56:13.330Z,16.84
2022-10-05T23:58:41.069Z,16.65
